createdAt,value
2017-01-30T00:00:02.978Z,1021.8
2017-01-30T00:01:06.087Z,1021.8
2017-01-30T00:02:09.032Z,1021.7
2017-01-30T00:03:12.311Z,1021.7
2017-01-30T00:04:15.327Z,1021.7
2017-01-30T00:05:18.276Z,1021.7
2017-01-30T00:06:21.725Z,1021.7
2017-01-30T00:07:24.664Z,1021.6
2017-01-30T00:08:28.132Z,1021.6
2017-01-30T00:09:30.908Z,1021.6
2017-01-30T00:10:34.360Z,1021.6
2017-01-30T00:11:37.305Z,1021.6
2017-01-30T00:12:40.757Z,1021.6
2017-01-30T00:13:43.701Z,1021.6
2017-01-30T00:14:46.642Z,1021.6
2017-01-30T00:15:50.088Z,1021.6
2017-01-30T00:16:53.034Z,1021.6
2017-01-30T00:17:56.378Z,1021.6
2017-01-30T00:18:59.326Z,1021.6
2017-01-30T00:20:02.776Z,1021.6
2017-01-30T00:21:05.725Z,1021.6
2017-01-30T00:22:08.697Z,1021.6
2017-01-30T00:23:12.138Z,1021.6
2017-01-30T00:25:18.514Z,1021.6
2017-01-30T00:26:21.462Z,1021.6
2017-01-30T00:28:27.817Z,1021.5
2017-01-30T00:29:30.757Z,1021.5
2017-01-30T00:30:34.204Z,1021.5
2017-01-30T00:31:37.475Z,1021.5
2017-01-30T00:32:40.414Z,1021.5
2017-01-30T00:33:43.693Z,1021.4
2017-01-30T00:34:46.634Z,1021.4
2017-01-30T00:35:50.077Z,1021.4
2017-01-30T00:36:53.023Z,1021.4
2017-01-30T00:37:55.965Z,1021.5
2017-01-30T00:38:59.418Z,1021.4
2017-01-30T00:40:02.362Z,1021.4
2017-01-30T00:41:05.807Z,1021.4
2017-01-30T00:42:08.748Z,1021.4
2017-01-30T00:43:12.199Z,1021.4
2017-01-30T00:44:15.139Z,1021.4
2017-01-30T00:45:18.254Z,1021.3
2017-01-30T00:46:21.193Z,1021.3
2017-01-30T00:47:24.642Z,1021.3
2017-01-30T00:48:27.583Z,1021.4
2017-01-30T00:49:31.039Z,1021.3
2017-01-30T00:50:33.982Z,1021.3
2017-01-30T00:51:36.924Z,1021.3
2017-01-30T00:52:40.372Z,1021.3
2017-01-30T00:53:43.652Z,1021.2
2017-01-30T00:54:46.421Z,1021.2
2017-01-30T00:55:49.894Z,1021.2
2017-01-30T00:56:52.837Z,1021.2
2017-01-30T00:57:56.308Z,1021.2
2017-01-30T00:58:59.247Z,1021.2
2017-01-30T01:00:02.199Z,1021.2
2017-01-30T01:01:05.648Z,1021.2
2017-01-30T01:02:08.599Z,1021.2
2017-01-30T01:03:12.052Z,1021.2
2017-01-30T01:04:14.999Z,1021.2
2017-01-30T01:05:17.952Z,1021.1
2017-01-30T01:06:21.400Z,1021.1
2017-01-30T01:07:24.387Z,1021.1
2017-01-30T01:08:27.332Z,1021.1
2017-01-30T01:09:30.781Z,1021.1
2017-01-30T01:10:33.722Z,1021.1
2017-01-30T01:11:37.193Z,1021.1
2017-01-30T01:12:40.133Z,1021
2017-01-30T01:13:43.416Z,1021.1
2017-01-30T01:14:46.348Z,1021
2017-01-30T01:15:49.792Z,1021
2017-01-30T01:16:52.733Z,1021
2017-01-30T01:17:56.013Z,1021
2017-01-30T01:18:58.958Z,1021
2017-01-30T01:20:02.405Z,1021
2017-01-30T01:21:05.576Z,1021
2017-01-30T01:22:08.548Z,1021
2017-01-30T01:23:11.493Z,1020.9
2017-01-30T01:24:14.770Z,1021
2017-01-30T01:25:18.215Z,1021
2017-01-30T01:26:21.154Z,1020.9
2017-01-30T01:27:24.095Z,1020.9
2017-01-30T01:28:27.575Z,1020.8
2017-01-30T01:29:30.516Z,1020.8
2017-01-30T01:30:33.963Z,1020.8
2017-01-30T01:31:36.905Z,1020.7
2017-01-30T01:32:39.849Z,1020.7
2017-01-30T01:33:43.296Z,1020.7
2017-01-30T01:34:46.575Z,1020.7
2017-01-30T01:35:49.516Z,1020.7
2017-01-30T01:36:52.459Z,1020.7
2017-01-30T01:37:55.905Z,1020.7
2017-01-30T01:38:58.854Z,1020.7
2017-01-30T01:40:02.136Z,1020.8
2017-01-30T01:41:05.430Z,1020.7
2017-01-30T01:42:08.368Z,1020.8
2017-01-30T01:43:11.677Z,1020.8
2017-01-30T01:44:14.783Z,1020.8
2017-01-30T01:45:17.727Z,1020.7
2017-01-30T01:46:21.170Z,1020.7
2017-01-30T01:47:24.111Z,1020.7
2017-01-30T01:48:27.389Z,1020.7
2017-01-30T01:49:30.336Z,1020.6
2017-01-30T01:50:33.783Z,1020.6
2017-01-30T01:51:36.724Z,1020.6
2017-01-30T01:52:39.672Z,1020.6
2017-01-30T01:53:43.117Z,1020.6
2017-01-30T01:54:46.061Z,1020.6
2017-01-30T01:55:49.506Z,1020.6
2017-01-30T01:57:55.860Z,1020.5
2017-01-30T01:58:58.805Z,1020.4
2017-01-30T02:00:01.753Z,1020.4
2017-01-30T02:01:05.200Z,1020.4
2017-01-30T02:02:08.146Z,1020.4
2017-01-30T02:03:11.589Z,1020.4
2017-01-30T02:04:14.369Z,1020.3
2017-01-30T02:05:17.819Z,1020.3
2017-01-30T02:06:20.768Z,1020.3
2017-01-30T02:07:24.216Z,1020.3
2017-01-30T02:08:27.157Z,1020.3
2017-01-30T02:09:30.098Z,1020.3
2017-01-30T02:10:33.548Z,1020.4
2017-01-30T02:11:36.490Z,1020.3
2017-01-30T02:12:39.936Z,1020.4
2017-01-30T02:13:42.877Z,1020.4
2017-01-30T02:14:46.162Z,1020.4
2017-01-30T02:15:49.112Z,1020.4
2017-01-30T02:16:52.557Z,1020.3
2017-01-30T02:17:55.501Z,1020.3
2017-01-30T02:18:58.444Z,1020.3
2017-01-30T02:20:01.892Z,1020.3
2017-01-30T02:21:04.833Z,1020.3
2017-01-30T02:22:08.280Z,1020.3
2017-01-30T02:23:11.410Z,1020.3
2017-01-30T02:24:14.518Z,1020.3
2017-01-30T02:25:17.465Z,1020.2
2017-01-30T02:26:20.419Z,1020.2
2017-01-30T02:27:23.866Z,1020.2
2017-01-30T02:28:26.805Z,1020.2
2017-01-30T02:29:30.250Z,1020.2
2017-01-30T02:30:33.201Z,1020.2
2017-01-30T02:31:36.647Z,1020.2
2017-01-30T02:32:39.587Z,1020.2
2017-01-30T02:33:42.532Z,1020.2
2017-01-30T02:34:45.975Z,1020.1
2017-01-30T02:35:48.915Z,1020.1
2017-01-30T02:36:52.362Z,1020.1
2017-01-30T02:37:55.302Z,1020.1
2017-01-30T02:38:58.273Z,1020.1
2017-01-30T02:40:01.726Z,1020.1
2017-01-30T02:41:04.677Z,1020.1
2017-01-30T02:42:07.967Z,1020.1
2017-01-30T02:43:10.907Z,1020.1
2017-01-30T02:44:14.185Z,1020.1
2017-01-30T02:45:17.459Z,1020
2017-01-30T02:46:20.401Z,1020
2017-01-30T02:47:23.848Z,1020
2017-01-30T02:48:26.786Z,1020
2017-01-30T02:49:29.730Z,1020
2017-01-30T02:51:36.087Z,1020
2017-01-30T02:52:39.365Z,1020
2017-01-30T02:53:42.304Z,1019.9
2017-01-30T02:54:45.777Z,1019.9
2017-01-30T02:55:48.725Z,1020
2017-01-30T02:56:51.673Z,1019.9
2017-01-30T02:57:55.133Z,1019.9
2017-01-30T02:58:58.078Z,1020
2017-01-30T03:00:01.526Z,1019.9
2017-01-30T03:01:04.469Z,1020
2017-01-30T03:02:07.423Z,1020
2017-01-30T03:03:10.875Z,1019.9
2017-01-30T03:04:14.149Z,1019.9
2017-01-30T03:05:17.090Z,1019.9
2017-01-30T03:06:20.034Z,1019.9
2017-01-30T03:07:23.483Z,1019.9
2017-01-30T03:08:26.430Z,1019.9
2017-01-30T03:09:29.881Z,1019.9
2017-01-30T03:10:32.822Z,1019.8
2017-01-30T03:11:35.766Z,1019.8
2017-01-30T03:12:39.211Z,1019.8
2017-01-30T03:13:42.158Z,1019.8
2017-01-30T03:14:45.603Z,1019.8
2017-01-30T03:15:48.547Z,1019.8
2017-01-30T03:16:51.511Z,1019.7
2017-01-30T03:17:54.957Z,1019.7
2017-01-30T03:18:57.897Z,1019.7
2017-01-30T03:20:01.347Z,1019.7
2017-01-30T03:21:04.300Z,1019.7
2017-01-30T03:23:10.488Z,1019.7
2017-01-30T03:24:13.939Z,1019.7
2017-01-30T03:26:19.791Z,1019.7
2017-01-30T03:27:23.235Z,1019.7
2017-01-30T03:28:26.018Z,1019.7
2017-01-30T03:29:29.464Z,1019.7
2017-01-30T03:30:32.401Z,1019.7
2017-01-30T03:31:35.846Z,1019.7
2017-01-30T03:32:38.795Z,1019.7
2017-01-30T03:33:42.239Z,1019.7
2017-01-30T03:34:45.184Z,1019.7
2017-01-30T03:35:48.467Z,1019.6
2017-01-30T03:36:51.412Z,1019.7
2017-01-30T03:37:54.358Z,1019.7
2017-01-30T03:38:57.804Z,1019.7
2017-01-30T03:40:00.743Z,1019.6
2017-01-30T03:41:04.185Z,1019.6
2017-01-30T03:42:07.134Z,1019.6
2017-01-30T03:43:10.083Z,1019.6
2017-01-30T03:44:13.363Z,1019.6
2017-01-30T03:45:16.832Z,1019.6
2017-01-30T03:46:19.777Z,1019.5
2017-01-30T03:47:22.722Z,1019.5
2017-01-30T03:48:26.168Z,1019.5
2017-01-30T03:49:29.105Z,1019.5
2017-01-30T03:50:32.392Z,1019.5
2017-01-30T03:51:35.346Z,1019.5
2017-01-30T03:52:38.816Z,1019.4
2017-01-30T03:53:41.762Z,1019.5
2017-01-30T03:54:44.705Z,1019.5
2017-01-30T03:55:47.987Z,1019.5
2017-01-30T03:56:50.980Z,1019.4
2017-01-30T03:57:54.428Z,1019.5
2017-01-30T03:58:57.378Z,1019.5
2017-01-30T04:00:00.828Z,1019.5
2017-01-30T04:01:03.774Z,1019.5
2017-01-30T04:02:06.717Z,1019.5
2017-01-30T04:03:09.997Z,1019.5
2017-01-30T04:04:13.452Z,1019.5
2017-01-30T04:05:16.396Z,1019.4
2017-01-30T04:06:19.345Z,1019.4
2017-01-30T04:07:22.793Z,1019.4
2017-01-30T04:08:25.757Z,1019.4
2017-01-30T04:09:28.728Z,1019.4
2017-01-30T04:10:32.177Z,1019.3
2017-01-30T04:11:35.122Z,1019.4
2017-01-30T04:12:38.574Z,1019.3
2017-01-30T04:13:41.377Z,1019.3
2017-01-30T04:14:44.829Z,1019.3
2017-01-30T04:15:47.773Z,1019.3
2017-01-30T04:16:51.055Z,1019.3
2017-01-30T04:17:54.002Z,1019.3
2017-01-30T04:18:57.455Z,1019.3
2017-01-30T04:20:00.400Z,1019.3
2017-01-30T04:21:03.844Z,1019.2
2017-01-30T04:22:06.789Z,1019.3
2017-01-30T04:23:10.067Z,1019.2
2017-01-30T04:24:13.020Z,1019.2
2017-01-30T04:25:16.137Z,1019.3
2017-01-30T04:26:19.583Z,1019.2
2017-01-30T04:27:22.365Z,1019.2
2017-01-30T04:28:25.816Z,1019.1
2017-01-30T04:29:28.764Z,1019.1
2017-01-30T04:30:31.714Z,1019.2
2017-01-30T04:31:35.188Z,1019.1
2017-01-30T04:32:38.128Z,1019.1
2017-01-30T04:33:41.572Z,1019.1
2017-01-30T04:34:44.541Z,1019.1
2017-01-30T04:35:47.517Z,1019.1
2017-01-30T04:37:53.876Z,1019.1
2017-01-30T04:38:57.329Z,1019.1
2017-01-30T04:40:00.105Z,1019.1
2017-01-30T04:41:03.551Z,1019.1
2017-01-30T04:42:06.839Z,1019.1
2017-01-30T04:43:09.815Z,1019.1
2017-01-30T04:44:12.788Z,1019.1
2017-01-30T04:46:19.152Z,1019
2017-01-30T04:47:22.128Z,1019
2017-01-30T04:48:25.572Z,1019
2017-01-30T04:49:28.516Z,1019
2017-01-30T04:50:31.985Z,1019
2017-01-30T04:51:34.933Z,1018.9
2017-01-30T04:52:37.886Z,1018.9
2017-01-30T04:53:41.346Z,1018.9
2017-01-30T04:54:44.292Z,1018.8
2017-01-30T04:55:47.741Z,1018.8
2017-01-30T04:56:50.686Z,1018.8
2017-01-30T04:57:53.666Z,1018.8
2017-01-30T04:58:57.117Z,1018.8
2017-01-30T05:00:00.062Z,1018.8
2017-01-30T05:01:03.509Z,1018.7
2017-01-30T05:02:06.449Z,1018.7
2017-01-30T05:03:09.559Z,1018.7
2017-01-30T05:04:12.838Z,1018.7
2017-01-30T05:05:15.778Z,1018.7
2017-01-30T05:06:19.226Z,1018.6
2017-01-30T05:07:22.174Z,1018.7
2017-01-30T05:09:28.531Z,1018.6
2017-01-30T05:10:31.503Z,1018.6
2017-01-30T05:11:34.951Z,1018.6
2017-01-30T05:12:37.894Z,1018.6
2017-01-30T05:13:41.353Z,1018.6
2017-01-30T05:14:44.299Z,1018.6
2017-01-30T05:15:47.243Z,1018.6
2017-01-30T05:16:50.695Z,1018.6
2017-01-30T05:17:53.640Z,1018.6
2017-01-30T05:18:57.091Z,1018.5
2017-01-30T05:20:00.038Z,1018.6
2017-01-30T05:21:02.985Z,1018.5
2017-01-30T05:22:06.460Z,1018.5
2017-01-30T05:24:12.816Z,1018.5
2017-01-30T05:26:18.676Z,1018.4
2017-01-30T05:27:22.124Z,1018.4
2017-01-30T05:28:25.068Z,1018.4
2017-01-30T05:29:28.548Z,1018.4
2017-01-30T05:31:34.936Z,1018.4
2017-01-30T05:32:37.880Z,1018.4
2017-01-30T05:33:40.828Z,1018.4
2017-01-30T05:34:44.280Z,1018.3
2017-01-30T05:35:47.251Z,1018.3
2017-01-30T05:36:50.193Z,1018.3
2017-01-30T05:37:53.640Z,1018.3
2017-01-30T05:38:56.582Z,1018.3
2017-01-30T05:40:00.037Z,1018.3
2017-01-30T05:41:02.817Z,1018.3
2017-01-30T05:42:06.273Z,1018.3
2017-01-30T05:43:09.220Z,1018.3
2017-01-30T05:44:12.671Z,1018.3
2017-01-30T05:45:15.456Z,1018.3
2017-01-30T05:46:18.928Z,1018.3
2017-01-30T05:47:21.894Z,1018.3
2017-01-30T05:48:24.877Z,1018.2
2017-01-30T05:49:28.325Z,1018.2
2017-01-30T05:50:31.298Z,1018.3
2017-01-30T05:51:34.579Z,1018.2
2017-01-30T05:52:37.524Z,1018.2
2017-01-30T05:53:40.992Z,1018.2
2017-01-30T05:54:43.939Z,1018.1
2017-01-30T05:55:46.914Z,1018.1
2017-01-30T05:56:50.362Z,1018.2
2017-01-30T05:57:53.309Z,1018.1
2017-01-30T05:58:56.754Z,1018.1
2017-01-30T05:59:59.532Z,1018.1
2017-01-30T06:01:02.982Z,1018.1
2017-01-30T06:02:05.926Z,1018
2017-01-30T06:03:09.379Z,1018
2017-01-30T06:04:12.323Z,1018
2017-01-30T06:05:15.267Z,1018
2017-01-30T06:06:18.719Z,1018
2017-01-30T06:07:21.664Z,1017.9
2017-01-30T06:08:24.944Z,1018
2017-01-30T06:09:27.890Z,1017.9
2017-01-30T06:10:31.340Z,1017.9
2017-01-30T06:11:34.284Z,1017.9
2017-01-30T06:12:37.734Z,1017.9
2017-01-30T06:13:40.684Z,1017.8
2017-01-30T06:14:43.655Z,1017.8
2017-01-30T06:15:47.101Z,1017.9
2017-01-30T06:16:50.049Z,1017.8
2017-01-30T06:17:53.494Z,1017.8
2017-01-30T06:18:56.438Z,1017.9
2017-01-30T06:19:59.384Z,1017.8
2017-01-30T06:21:02.830Z,1017.8
2017-01-30T06:22:05.779Z,1017.8
2017-01-30T06:23:09.064Z,1017.8
2017-01-30T06:24:12.014Z,1017.8
2017-01-30T06:25:15.120Z,1017.9
2017-01-30T06:26:18.570Z,1017.9
2017-01-30T06:27:21.856Z,1017.9
2017-01-30T06:28:24.640Z,1017.9
2017-01-30T06:29:28.093Z,1017.8
2017-01-30T06:30:31.043Z,1017.8
2017-01-30T06:31:33.992Z,1017.8
2017-01-30T06:32:37.446Z,1017.8
2017-01-30T06:33:40.389Z,1017.8
2017-01-30T06:34:43.837Z,1017.8
2017-01-30T06:35:46.786Z,1017.8
2017-01-30T06:36:49.734Z,1017.8
2017-01-30T06:37:53.182Z,1017.7
2017-01-30T06:38:56.125Z,1017.7
2017-01-30T06:41:02.487Z,1017.7
2017-01-30T06:42:05.939Z,1017.7
2017-01-30T06:43:08.885Z,1017.7
2017-01-30T06:44:11.855Z,1017.6
2017-01-30T06:45:15.333Z,1017.6
2017-01-30T06:46:18.278Z,1017.6
2017-01-30T06:47:21.240Z,1017.6
2017-01-30T06:48:24.687Z,1017.6
2017-01-30T06:49:27.634Z,1017.6
2017-01-30T06:51:33.991Z,1017.6
2017-01-30T06:52:37.441Z,1017.6
2017-01-30T06:53:40.383Z,1017.6
2017-01-30T06:54:43.335Z,1017.6
2017-01-30T06:55:46.790Z,1017.6
2017-01-30T06:56:49.735Z,1017.6
2017-01-30T06:57:53.184Z,1017.6
2017-01-30T06:59:59.543Z,1017.5
2017-01-30T07:01:02.367Z,1017.5
2017-01-30T07:02:05.648Z,1017.5
2017-01-30T07:03:08.932Z,1017.5
2017-01-30T07:04:11.875Z,1017.5
2017-01-30T07:05:14.983Z,1017.5
2017-01-30T07:06:18.430Z,1017.5
2017-01-30T07:07:21.383Z,1017.4
2017-01-30T07:08:24.387Z,1017.4
2017-01-30T07:09:27.830Z,1017.4
2017-01-30T07:10:30.775Z,1017.4
2017-01-30T07:11:33.744Z,1017.4
2017-01-30T07:12:37.192Z,1017.4
2017-01-30T07:13:40.160Z,1017.3
2017-01-30T07:14:43.612Z,1017.3
2017-01-30T07:15:46.729Z,1017.3
2017-01-30T07:16:49.508Z,1017.3
2017-01-30T07:17:52.961Z,1017.2
2017-01-30T07:18:55.903Z,1017.2
2017-01-30T07:19:59.248Z,1017.3
2017-01-30T07:21:02.193Z,1017.2
2017-01-30T07:22:05.641Z,1017.3
2017-01-30T07:23:08.584Z,1017.3
2017-01-30T07:24:12.027Z,1017.2
2017-01-30T07:25:14.969Z,1017.2
2017-01-30T07:26:17.915Z,1017.2
2017-01-30T07:27:21.360Z,1017.2
2017-01-30T07:28:24.301Z,1017.2
2017-01-30T07:29:27.748Z,1017.2
2017-01-30T07:30:30.693Z,1017.2
2017-01-30T07:31:33.639Z,1017.2
2017-01-30T07:32:37.114Z,1017.2
2017-01-30T07:33:40.061Z,1017.1
2017-01-30T07:34:43.510Z,1017.1
2017-01-30T07:35:46.454Z,1017.1
2017-01-30T07:36:49.398Z,1017.1
2017-01-30T07:37:52.870Z,1017
2017-01-30T07:38:55.815Z,1017
2017-01-30T07:39:59.098Z,1017
2017-01-30T07:41:02.048Z,1017.1
2017-01-30T07:42:05.333Z,1017.1
2017-01-30T07:43:08.611Z,1017
2017-01-30T07:44:11.564Z,1017
2017-01-30T07:46:17.920Z,1017
2017-01-30T07:47:21.363Z,1017
2017-01-30T07:48:24.312Z,1017
2017-01-30T07:49:27.256Z,1017
2017-01-30T07:50:30.705Z,1016.9
2017-01-30T07:51:33.678Z,1016.9
2017-01-30T07:52:37.127Z,1016.9
2017-01-30T07:53:40.093Z,1016.9
2017-01-30T07:54:43.037Z,1016.8
2017-01-30T07:55:46.316Z,1016.9
2017-01-30T07:56:49.762Z,1016.8
2017-01-30T07:57:52.711Z,1016.8
2017-01-30T07:58:55.661Z,1016.8
2017-01-30T07:59:59.112Z,1016.8
2017-01-30T08:01:02.061Z,1016.8
2017-01-30T08:02:05.513Z,1016.8
2017-01-30T08:03:08.290Z,1016.8
2017-01-30T08:04:11.739Z,1016.8
2017-01-30T08:05:14.683Z,1016.8
2017-01-30T08:06:18.134Z,1016.8
2017-01-30T08:07:20.906Z,1016.8
2017-01-30T08:08:24.352Z,1016.8
2017-01-30T08:09:27.307Z,1016.8
2017-01-30T08:10:30.756Z,1016.8
2017-01-30T08:11:33.702Z,1016.9
2017-01-30T08:12:36.987Z,1016.8
2017-01-30T08:13:39.929Z,1016.8
2017-01-30T08:14:43.378Z,1016.8
2017-01-30T08:15:46.326Z,1016.8
2017-01-30T08:16:49.776Z,1016.8
2017-01-30T08:17:52.721Z,1016.8
2017-01-30T08:18:55.663Z,1016.8
2017-01-30T08:19:58.948Z,1016.8
2017-01-30T08:21:02.396Z,1016.7
2017-01-30T08:22:05.347Z,1016.7
2017-01-30T08:23:08.628Z,1016.7
2017-01-30T08:24:11.576Z,1016.7
2017-01-30T08:25:15.027Z,1016.8
2017-01-30T08:26:17.972Z,1016.8
2017-01-30T08:27:20.916Z,1016.8
2017-01-30T08:28:24.366Z,1016.8
2017-01-30T08:29:27.312Z,1016.7
2017-01-30T08:30:30.756Z,1016.7
2017-01-30T08:31:33.704Z,1016.8
2017-01-30T08:32:36.649Z,1016.7
2017-01-30T08:33:40.096Z,1016.7
2017-01-30T08:34:43.041Z,1016.7
2017-01-30T08:35:46.492Z,1016.6
2017-01-30T08:36:49.440Z,1016.6
2017-01-30T08:37:52.888Z,1016.6
2017-01-30T08:38:55.835Z,1016.6
2017-01-30T08:39:58.793Z,1016.6
2017-01-30T08:41:02.240Z,1016.6
2017-01-30T08:42:05.186Z,1016.6
2017-01-30T08:43:08.471Z,1016.6
2017-01-30T08:44:11.419Z,1016.6
2017-01-30T08:45:14.872Z,1016.5
2017-01-30T08:46:17.815Z,1016.6
2017-01-30T08:47:21.281Z,1016.6
2017-01-30T08:48:24.225Z,1016.5
2017-01-30T08:49:27.509Z,1016.6
2017-01-30T08:50:30.456Z,1016.5
2017-01-30T08:51:33.902Z,1016.5
2017-01-30T08:52:36.849Z,1016.5
2017-01-30T08:53:39.817Z,1016.5
2017-01-30T08:54:43.127Z,1016.5
2017-01-30T08:55:46.409Z,1016.4
2017-01-30T08:56:49.354Z,1016.4
2017-01-30T08:57:52.802Z,1016.4
2017-01-30T08:58:55.581Z,1016.4
2017-01-30T08:59:59.028Z,1016.4
2017-01-30T09:01:01.973Z,1016.4
2017-01-30T09:02:05.424Z,1016.4
2017-01-30T09:03:08.535Z,1016.4
2017-01-30T09:04:11.506Z,1016.3
2017-01-30T09:06:17.866Z,1016.3
2017-01-30T09:07:21.313Z,1016.3
2017-01-30T09:08:24.263Z,1016.3
2017-01-30T09:09:27.213Z,1016.4
2017-01-30T09:10:30.661Z,1016.4
2017-01-30T09:11:33.606Z,1016.3
2017-01-30T09:12:37.056Z,1016.3
2017-01-30T09:13:40.004Z,1016.3
2017-01-30T09:14:42.973Z,1016.3
2017-01-30T09:15:46.263Z,1016.3
2017-01-30T09:16:49.712Z,1016.3
2017-01-30T09:17:52.680Z,1016.3
2017-01-30T09:18:55.624Z,1016.3
2017-01-30T09:19:58.903Z,1016.3
2017-01-30T09:21:02.355Z,1016.2
2017-01-30T09:22:05.303Z,1016.2
2017-01-30T09:23:08.251Z,1016.2
2017-01-30T09:24:11.703Z,1016.2
2017-01-30T09:25:14.675Z,1016.2
2017-01-30T09:26:18.123Z,1016.2
2017-01-30T09:27:21.066Z,1016.2
2017-01-30T09:28:24.515Z,1016.2
2017-01-30T09:29:27.460Z,1016.2
2017-01-30T09:30:30.407Z,1016.2
2017-01-30T09:31:33.882Z,1016.2
2017-01-30T09:32:36.856Z,1016
2017-01-30T09:33:40.141Z,1016
2017-01-30T09:34:43.085Z,1016
2017-01-30T09:35:46.533Z,1016.2
2017-01-30T09:36:49.478Z,1016
2017-01-30T09:37:52.929Z,1016
2017-01-30T09:38:55.877Z,1016
2017-01-30T09:39:59.331Z,1016
2017-01-30T09:41:02.278Z,1016
2017-01-30T09:42:05.230Z,1016
2017-01-30T09:43:08.343Z,1016
2017-01-30T09:44:11.796Z,1015.9
2017-01-30T09:45:15.080Z,1016
2017-01-30T09:46:18.033Z,1016
2017-01-30T09:47:21.005Z,1016
2017-01-30T09:48:24.481Z,1016
2017-01-30T09:49:27.784Z,1016
2017-01-30T09:50:30.727Z,1016
2017-01-30T09:51:33.668Z,1016
2017-01-30T09:52:37.114Z,1016
2017-01-30T09:53:40.407Z,1016
2017-01-30T09:54:43.353Z,1016
2017-01-30T09:55:46.635Z,1016
2017-01-30T09:56:49.578Z,1016
2017-01-30T09:57:53.032Z,1016.2
2017-01-30T09:58:55.975Z,1016
2017-01-30T09:59:59.284Z,1016
2017-01-30T10:01:02.227Z,1016
2017-01-30T10:02:05.676Z,1016
2017-01-30T10:03:08.623Z,1016
2017-01-30T10:04:12.071Z,1016
2017-01-30T10:05:15.020Z,1016
2017-01-30T10:06:17.963Z,1016
2017-01-30T10:07:21.410Z,1015.9
2017-01-30T10:08:24.358Z,1015.9
2017-01-30T10:09:27.803Z,1015.9
2017-01-30T10:10:30.747Z,1015.9
2017-01-30T10:11:34.197Z,1015.9
2017-01-30T10:12:37.163Z,1015.9
2017-01-30T10:13:40.441Z,1015.9
2017-01-30T10:14:43.413Z,1015.8
2017-01-30T10:15:46.861Z,1015.8
2017-01-30T10:16:49.805Z,1015.8
2017-01-30T10:17:52.750Z,1015.8
2017-01-30T10:18:56.201Z,1015.7
2017-01-30T10:19:59.141Z,1015.7
2017-01-30T10:21:02.429Z,1015.7
2017-01-30T10:21:32.684Z,1015.7
2017-01-30T10:22:05.436Z,1015.7
2017-01-30T10:23:08.883Z,1015.6
2017-01-30T10:24:11.837Z,1015.7
2017-01-30T10:25:15.284Z,1015.7
2017-01-30T10:27:21.642Z,1015.6
2017-01-30T10:28:24.587Z,1015.6
2017-01-30T10:29:27.528Z,1015.6
2017-01-30T10:30:30.970Z,1015.6
2017-01-30T10:31:33.915Z,1015.6
2017-01-30T10:32:37.371Z,1015.6
2017-01-30T10:33:40.177Z,1015.5
2017-01-30T10:34:43.631Z,1015.5
2017-01-30T10:35:46.907Z,1015.5
2017-01-30T10:36:49.684Z,1015.5
2017-01-30T10:37:53.135Z,1015.5
2017-01-30T10:38:56.079Z,1015.4
2017-01-30T10:39:59.531Z,1015.4
2017-01-30T10:41:02.311Z,1015.3
2017-01-30T10:42:05.763Z,1015.3
2017-01-30T10:43:09.044Z,1015.4
2017-01-30T10:44:11.993Z,1015.3
2017-01-30T10:45:15.441Z,1015.3
2017-01-30T10:46:18.389Z,1015.3
2017-01-30T10:47:21.333Z,1015.3
2017-01-30T10:48:24.782Z,1015.3
2017-01-30T10:49:27.724Z,1015.3
2017-01-30T10:50:31.168Z,1015.3
2017-01-30T10:51:34.117Z,1015.2
2017-01-30T10:52:37.565Z,1015.2
2017-01-30T10:53:40.536Z,1015.2
2017-01-30T10:54:43.481Z,1015.1
2017-01-30T10:55:46.962Z,1015.2
2017-01-30T10:56:49.906Z,1015.1
2017-01-30T10:57:53.358Z,1015.1
2017-01-30T10:58:56.302Z,1015.2
2017-01-30T10:59:59.245Z,1015.2
2017-01-30T11:01:02.858Z,1015.2
2017-01-30T11:02:05.803Z,1015.2
2017-01-30T11:03:09.083Z,1015.2
2017-01-30T11:04:12.034Z,1015.2
2017-01-30T11:05:15.481Z,1015.1
2017-01-30T11:06:18.426Z,1015.1
2017-01-30T11:07:21.873Z,1015
2017-01-30T11:09:27.725Z,1015.1
2017-01-30T11:10:31.172Z,1015.1
2017-01-30T11:11:34.117Z,1015.1
2017-01-30T11:12:37.599Z,1015.1
2017-01-30T11:13:40.564Z,1015
2017-01-30T11:14:44.013Z,1015
2017-01-30T11:15:46.981Z,1015
2017-01-30T11:16:49.936Z,1015
2017-01-30T11:18:56.293Z,1014.9
2017-01-30T11:19:59.741Z,1014.9
2017-01-30T11:21:03.031Z,1014.9
2017-01-30T11:22:05.975Z,1014.9
2017-01-30T11:23:09.258Z,1015
2017-01-30T11:24:12.204Z,1014.9
2017-01-30T11:25:15.318Z,1014.9
2017-01-30T11:26:18.763Z,1014.9
2017-01-30T11:27:21.711Z,1014.9
2017-01-30T11:28:25.163Z,1014.8
2017-01-30T11:29:28.111Z,1014.9
2017-01-30T11:30:31.409Z,1014.9
2017-01-30T11:31:34.357Z,1014.9
2017-01-30T11:32:37.832Z,1014.9
2017-01-30T11:33:40.777Z,1014.9
2017-01-30T11:34:43.721Z,1014.9
2017-01-30T11:35:47.170Z,1014.8
2017-01-30T11:36:50.113Z,1014.8
2017-01-30T11:37:53.564Z,1014.8
2017-01-30T11:38:56.505Z,1014.8
2017-01-30T11:39:59.783Z,1014.7
2017-01-30T11:41:02.728Z,1014.7
2017-01-30T11:42:06.014Z,1014.7
2017-01-30T11:43:09.461Z,1014.7
2017-01-30T11:44:12.409Z,1014.6
2017-01-30T11:45:15.357Z,1014.6
2017-01-30T11:46:18.809Z,1014.6
2017-01-30T11:47:21.750Z,1014.6
2017-01-30T11:48:25.200Z,1014.6
2017-01-30T11:49:28.146Z,1014.6
2017-01-30T11:50:31.597Z,1014.6
2017-01-30T11:51:34.545Z,1014.6
2017-01-30T11:52:37.485Z,1014.5
2017-01-30T11:53:40.932Z,1014.5
2017-01-30T11:54:43.877Z,1014.5
2017-01-30T11:55:47.329Z,1014.5
2017-01-30T11:56:50.279Z,1014.4
2017-01-30T11:57:53.727Z,1014.4
2017-01-30T11:58:56.668Z,1014.4
2017-01-30T11:59:59.616Z,1014.4
2017-01-30T12:01:02.899Z,1014.3
2017-01-30T12:02:06.346Z,1014.4
2017-01-30T12:03:09.121Z,1014.3
2017-01-30T12:04:12.565Z,1014.3
2017-01-30T12:05:15.845Z,1014.2
2017-01-30T12:06:18.820Z,1014.3
2017-01-30T12:07:21.764Z,1014.3
2017-01-30T12:08:25.207Z,1014.3
2017-01-30T12:09:28.156Z,1014.3
2017-01-30T12:10:31.602Z,1014.2
2017-01-30T12:11:34.547Z,1014.3
2017-01-30T12:12:37.992Z,1014.2
2017-01-30T12:13:40.939Z,1014.3
2017-01-30T12:14:43.888Z,1014.1
2017-01-30T12:15:47.362Z,1014.1
2017-01-30T12:16:50.303Z,1014.1
2017-01-30T12:17:53.614Z,1014.1
2017-01-30T12:18:56.562Z,1014.1
2017-01-30T12:20:00.014Z,1014
2017-01-30T12:21:03.296Z,1014
2017-01-30T12:22:06.135Z,1013.9
2017-01-30T12:23:09.608Z,1013.9
2017-01-30T12:24:12.556Z,1013.9
2017-01-30T12:25:15.676Z,1013.9
2017-01-30T12:26:19.128Z,1013.9
2017-01-30T12:27:22.073Z,1013.9
2017-01-30T12:28:25.017Z,1013.8
2017-01-30T12:29:28.461Z,1013.8
2017-01-30T12:30:31.574Z,1013.8
2017-01-30T12:31:34.518Z,1013.7
2017-01-30T12:32:37.796Z,1013.6
2017-01-30T12:33:40.906Z,1013.6
2017-01-30T12:34:44.354Z,1013.6
2017-01-30T12:35:47.635Z,1013.6
2017-01-30T12:36:50.591Z,1013.5
2017-01-30T12:37:53.536Z,1013.5
2017-01-30T12:38:56.980Z,1013.4
2017-01-30T12:39:59.925Z,1013.5
2017-01-30T12:41:03.376Z,1013.4
2017-01-30T12:42:06.153Z,1013.4
2017-01-30T12:43:09.433Z,1013.4
2017-01-30T12:44:12.943Z,1013.3
2017-01-30T12:45:15.889Z,1013.3
2017-01-30T12:46:18.834Z,1013.3
2017-01-30T12:47:22.281Z,1013.3
2017-01-30T12:48:25.229Z,1013.3
2017-01-30T12:49:28.701Z,1013.1
2017-01-30T12:50:31.647Z,1013.2
2017-01-30T12:51:35.096Z,1013.1
2017-01-30T12:52:38.045Z,1013.1
2017-01-30T12:53:40.988Z,1013.1
2017-01-30T12:54:44.437Z,1013.2
2017-01-30T12:55:47.385Z,1013.1
2017-01-30T12:56:50.841Z,1013.1
2017-01-30T12:57:53.788Z,1013.1
2017-01-30T12:58:57.079Z,1013
2017-01-30T13:00:00.031Z,1013
2017-01-30T13:01:03.479Z,1012.9
2017-01-30T13:02:06.426Z,1012.9
2017-01-30T13:03:09.701Z,1012.9
2017-01-30T13:04:12.644Z,1012.9
2017-01-30T13:05:15.923Z,1012.9
2017-01-30T13:06:19.375Z,1012.8
2017-01-30T13:07:22.319Z,1012.9
2017-01-30T13:08:25.264Z,1012.8
2017-01-30T13:09:28.714Z,1012.8
2017-01-30T13:10:31.663Z,1012.7
2017-01-30T13:11:35.110Z,1012.8
2017-01-30T13:12:38.049Z,1012.6
2017-01-30T13:13:41.518Z,1012.6
2017-01-30T13:14:44.462Z,1012.7
2017-01-30T13:15:47.745Z,1012.6
2017-01-30T13:17:54.109Z,1012.6
2017-01-30T13:18:57.056Z,1012.6
2017-01-30T13:20:00.502Z,1012.6
2017-01-30T13:21:03.498Z,1012.6
2017-01-30T13:22:06.444Z,1012.6
2017-01-30T13:23:09.791Z,1012.5
2017-01-30T13:24:13.237Z,1012.5
2017-01-30T13:25:16.183Z,1012.5
2017-01-30T13:26:19.158Z,1012.5
2017-01-30T13:27:22.607Z,1012.5
2017-01-30T13:28:25.918Z,1012.5
2017-01-30T13:29:28.885Z,1012.5
2017-01-30T13:30:31.833Z,1012.5
2017-01-30T13:31:35.279Z,1012.5
2017-01-30T13:32:38.599Z,1012.4
2017-01-30T13:33:41.543Z,1012.5